Weather observations for the past three days for
Napa, Napa County Airport
Imperial (Metric)
Date Time (pdt) Wind (mph) Vis. (mi.) Weather Sky Cond. Temperature (ºF) Relative Humidity Wind Chill (°F) Heat Index (°F) Pressure Precipitation (in)
Air Dwpt 6 hour altimeter (in) sea level (mb) 1 hr 3 hr 6 hr
Max. Min.
30 23:54 S 14 10.00 Overcast OVC010 59 55.9 90% 29.89 1011.2
30 22:54 S 13 10.00 Fair CLR 57.9 55.9 71.1 57.9 93% 29.88 1011.1
30 21:54 S 12 10.00 Fair CLR 60.1 57 90% 29.89 1011.1
30 20:54 S 10 10.00 Fair CLR 60.1 57 90% 29.87 1010.6
30 19:54 S 10 10.00 Fair CLR 61 57 87% 29.85 1010.1
30 18:54 S 13 10.00 Fair CLR 64.9 57 76% 29.86 1010.2
30 17:54 S 15 10.00 Fair CLR 68 55.9 65% 29.86 1010.4
30 16:54 SW 13 10.00 Fair CLR 70 55.9 72 64 61% 29.87 1010.6
30 15:54 S 14 10.00 Fair CLR 71.1 55.9 59% 29.88 1010.9
30 14:54 S 14 10.00 Fair CLR 70 55 59% 29.9 1011.7
30 13:54 SW 14 10.00 Fair CLR 69.1 55 61% 29.93 1012.6
30 12:54 SW 14 10.00 Fair CLR 69.1 55 61% 29.94 1013.1
30 11:54 SW 13 10.00 A Few Clouds FEW014 66 55 68% 29.96 1013.5
30 10:54 SW 12 10.00 Partly Cloudy SCT014 64.9 55 64.9 50 70% 29.96 1013.7
30 09:54 SW 10 10.00 Mostly Cloudy BKN013 62.1 55 78% 29.96 1013.7
30 08:54 SW 10 10.00 Mostly Cloudy BKN012 60.1 54 80% 29.96 1013.5
30 07:54 SW 9 10.00 Overcast OVC009 57.9 55 90% 29.95 1013.4
30 06:54 SW 8 7.00 Overcast OVC009 57 55 93% 29.94 1012.8
30 05:54 Calm 10.00 Overcast BKN010 OVC015 55 53.1 93% 29.92 1012.3
30 04:54 Calm 10.00 Mostly Cloudy BKN013 50 48.9 60.1 48.9 96% 29.91 1012.0
30 03:54 NW 3 10.00 A Few Clouds FEW013 52 48.9 89% 29.91 1012.1
30 02:54 Calm 10.00 Fair CLR 52 48 86% 29.91 1012.0
30 01:54 NW 3 10.00 Fair CLR 54 48.9 83% 29.91 1012.0
30 00:54 W 6 10.00 Fair CLR 55.9 52 87% 29.91 1012.0
29 23:54 W 3 10.00 Fair CLR 57 51.1 81% 29.91 1011.9
29 22:54 SW 7 10.00 Fair CLR 59 52 73 59 78% 29.91 1012.1
29 21:54 SW 8 10.00 Fair CLR 61 54 78% 29.91 1012.0
29 20:54 S 12 10.00 Fair CLR 64 55.9 75% 29.9 1011.5
29 19:54 S 12 10.00 Fair CLR 64.9 55.9 73% 29.89 1011.1
29 18:54 S 16 10.00 Fair CLR 69.1 57 66% 29.88 1011.1
29 17:54 S 15 10.00 Fair CLR 71.1 57.9 63% 29.89 1011.2
29 16:54 S 17 10.00 Fair CLR 72 57 73.9 64 59% 29.89 1011.4
29 15:54 S 17 10.00 Fair CLR 73 55.9 55% 29.91 1011.8
29 14:54 SW 18 10.00 Fair CLR 73 55.9 55% 29.94 1012.8
29 13:54 SW 15 10.00 Fair CLR 71.1 55.9 59% 29.95 1013.2
29 12:54 S 12 10.00 Fair CLR 70 55.9 61% 29.97 1014.0
29 11:54 SW 10 10.00 A Few Clouds FEW012 66.9 57 71% 29.99 1014.7
29 10:54 SW 6 10.00 Mostly Cloudy BKN010 64 55.9 64 51.1 75% 30 1015.0
29 09:54 W 3 10.00 Overcast OVC004 57.9 55.9 93% 30 1014.9
29 08:54 NW 6 10.00 Overcast OVC004 57 55 93% 29.99 1014.6
29 07:54 NW 5 10.00 Overcast OVC006 57 55 93% 29.98 1014.5
29 06:54 NW 6 10.00 Overcast OVC006 55.9 55 97% 29.97 1013.9
29 05:54 NW 6 10.00 Overcast OVC007 53.1 52 96% 29.96 1013.5
29 04:54 N 3 10.00 Mostly Cloudy BKN008 53.1 52 60.1 51.1 96% 29.95 1013.5
29 03:54 Calm 10.00 Fair CLR 53.1 52 96% 29.96 1013.7
29 02:54 SW 3 10.00 Fair CLR 54 53.1 97% 29.95 1013.4
29 01:54 S 5 10.00 Fair CLR 57.9 55 90% 29.96 1013.5
29 00:54 S 8 10.00 Fair CLR 57 54 90% 29.96 1013.6
28 23:54 S 3 10.00 Fair CLR 59 55 87% 29.95 1013.2
28 22:54 SW 8 10.00 Fair CLR 60.1 55 70 60.1 84% 29.95 1013.2
28 21:54 S 5 10.00 Fair CLR 62.1 57.9 86% 29.95 1013.4
28 20:54 S 9 10.00 Fair CLR 64 59 84% 29.95 1013.3
28 19:54 S 6 10.00 Fair CLR 64.9 55.9 73% 29.94 1013.1
28 18:54 S 10 10.00 Fair CLR 69.1 57 66% 29.95 1013.2
28 17:54 S 12 10.00 Fair CLR 68 57 68% 29.95 1013.5
28 16:54 S 8 10.00 Fair CLR 68 57 69.1 64.9 68% 29.96 1013.5
28 15:54 SW 14 10.00 Partly Cloudy SCT110 68 57 68% 29.98 1014.2
28 14:54 S 13 10.00 Light Rain CLR 66.9 57.9 73% 29.99 1014.6
28 13:54 SW 13 10.00 Light Rain FEW046 SCT100 68 55 63% 30 1015.1
28 12:54 SW 10 10.00 Fair CLR 66.9 55 66% 30.01 1015.3
28 11:54 W 7 10.00 A Few Clouds FEW100 68 55.9 65% 30.01 1015.2
28 10:54 S 12 10.00 A Few Clouds FEW110 64.9 57.9 64.9 60.1 78% 30 1015.1
28 09:54 Calm 10.00 A Few Clouds FEW012 FEW120 64 57 78% 30 1015.0
28 08:54 SW 12 10.00 Mostly Cloudy BKN110 63 57.9 84% 30 1014.8
28 07:54 Calm 10.00 Fair CLR 62.1 55 78% 29.95 1013.4
28 06:54 Calm 10.00 Fair CLR 61 55 81% 29.93 1012.7
28 05:54 Calm 10.00 Fair CLR 61 54 78% 29.91 1012.0
28 04:54 W 3 10.00 Fair CLR 61 54 63 60.1 78% 29.92 1012.2
28 03:54 SW 5 10.00 Fair CLR 61 55 81% 29.92 1012.3
28 02:54 SW 3 10.00 Fair CLR 60.1 54 80% 29.91 1012.1
28 01:54 W 5 10.00 Fair CLR 61 53.1 75% 29.93 1012.5
28 00:54 W 3 10.00 Fair CLR 61 53.1 75% 29.93 1012.6
Date Time (pdt) Wind (mph) Vis. (mi.) Weather Sky Cond. Air Dwpt Max. Min. Relative Humidity Wind Chill (°F) Heat Index (°F) altimeter (in) sea level (mb) 1 hr 3 hr 6 hr
6 hour
Temperature (ºF) Pressure Precipitation (in)